sensor_id;sensor_type;location;lat;lon;timestamp;temperature;humidity
13049;DHT22;6591;51.446;5.404;2022-10-15T00:01:27;14.80;99.90
13049;DHT22;6591;51.446;5.404;2022-10-15T00:03:59;15.20;99.90
13049;DHT22;6591;51.446;5.404;2022-10-15T00:06:26;13.50;99.90
13049;DHT22;6591;51.446;5.404;2022-10-15T00:08:53;13.50;99.90
13049;DHT22;6591;51.446;5.404;2022-10-15T00:11:23;13.50;99.90
13049;DHT22;6591;51.446;5.404;2022-10-15T00:13:53;14.00;99.90
13049;DHT22;6591;51.446;5.404;2022-10-15T00:16:26;13.50;99.90
13049;DHT22;6591;51.446;5.404;2022-10-15T00:18:56;13.20;99.90
13049;DHT22;6591;51.446;5.404;2022-10-15T00:21:24;15.60;99.90
13049;DHT22;6591;51.446;5.404;2022-10-15T00:23:52;13.40;99.90
13049;DHT22;6591;51.446;5.404;2022-10-15T00:26:24;14.60;99.90
13049;DHT22;6591;51.446;5.404;2022-10-15T00:28:56;13.40;99.90
13049;DHT22;6591;51.446;5.404;2022-10-15T00:31:26;15.40;99.90
13049;DHT22;6591;51.446;5.404;2022-10-15T00:34:00;15.60;99.90
13049;DHT22;6591;51.446;5.404;2022-10-15T00:36:31;16.00;99.90
13049;DHT22;6591;51.446;5.404;2022-10-15T00:39:01;13.40;99.90
13049;DHT22;6591;51.446;5.404;2022-10-15T00:41:33;13.50;99.90
13049;DHT22;6591;51.446;5.404;2022-10-15T00:47:13;13.60;99.90
13049;DHT22;6591;51.446;5.404;2022-10-15T00:49:50;13.60;99.90
13049;DHT22;6591;51.446;5.404;2022-10-15T00:52:26;13.70;99.90
13049;DHT22;6591;51.446;5.404;2022-10-15T00:55:05;13.70;99.90
13049;DHT22;6591;51.446;5.404;2022-10-15T00:57:37;13.80;99.90
13049;DHT22;6591;51.446;5.404;2022-10-15T01:00:12;13.90;99.90
13049;DHT22;6591;51.446;5.404;2022-10-15T01:02:44;13.90;99.90
13049;DHT22;6591;51.446;5.404;2022-10-15T01:05:14;14.90;99.90
13049;DHT22;6591;51.446;5.404;2022-10-15T01:07:42;14.00;99.90
13049;DHT22;6591;51.446;5.404;2022-10-15T01:10:10;16.30;99.90
13049;DHT22;6591;51.446;5.404;2022-10-15T01:15:49;14.20;99.90
13049;DHT22;6591;51.446;5.404;2022-10-15T01:18:25;14.20;99.90
13049;DHT22;6591;51.446;5.404;2022-10-15T01:21:49;14.80;99.90
13049;DHT22;6591;51.446;5.404;2022-10-15T01:25:02;14.30;99.90
13049;DHT22;6591;51.446;5.404;2022-10-15T01:27:54;14.40;99.90
13049;DHT22;6591;51.446;5.404;2022-10-15T01:30:38;15.70;99.90
13049;DHT22;6591;51.446;5.404;2022-10-15T01:33:25;14.50;99.90
13049;DHT22;6591;51.446;5.404;2022-10-15T01:36:06;14.60;99.90
13049;DHT22;6591;51.446;5.404;2022-10-15T01:41:52;14.60;99.90
13049;DHT22;6591;51.446;5.404;2022-10-15T01:44:39;16.70;99.90
13049;DHT22;6591;51.446;5.404;2022-10-15T01:49:47;14.70;99.90
13049;DHT22;6591;51.446;5.404;2022-10-15T01:52:22;16.10;99.90
13049;DHT22;6591;51.446;5.404;2022-10-15T01:54:53;16.80;99.90
13049;DHT22;6591;51.446;5.404;2022-10-15T01:57:23;14.80;99.90
13049;DHT22;6591;51.446;5.404;2022-10-15T01:59:53;15.30;99.90
13049;DHT22;6591;51.446;5.404;2022-10-15T02:02:23;16.20;99.90
13049;DHT22;6591;51.446;5.404;2022-10-15T02:04:51;14.90;99.90
13049;DHT22;6591;51.446;5.404;2022-10-15T02:14:00;14.90;99.90
13049;DHT22;6591;51.446;5.404;2022-10-15T02:16:52;15.00;99.90
13049;DHT22;6591;51.446;5.404;2022-10-15T02:19:54;15.00;99.90
13049;DHT22;6591;51.446;5.404;2022-10-15T02:22:33;15.00;99.90
13049;DHT22;6591;51.446;5.404;2022-10-15T02:25:15;15.00;99.90
13049;DHT22;6591;51.446;5.404;2022-10-15T02:27:47;15.00;99.90
13049;DHT22;6591;51.446;5.404;2022-10-15T02:30:18;16.80;99.90
13049;DHT22;6591;51.446;5.404;2022-10-15T02:32:51;15.00;99.90
13049;DHT22;6591;51.446;5.404;2022-10-15T02:35:23;15.10;99.90
13049;DHT22;6591;51.446;5.404;2022-10-15T02:37:53;16.40;99.90
13049;DHT22;6591;51.446;5.404;2022-10-15T02:40:27;16.10;99.90
13049;DHT22;6591;51.446;5.404;2022-10-15T02:42:58;15.10;99.90
13049;DHT22;6591;51.446;5.404;2022-10-15T02:45:26;15.20;99.90
13049;DHT22;6591;51.446;5.404;2022-10-15T02:47:53;15.10;99.90
13049;DHT22;6591;51.446;5.404;2022-10-15T02:50:22;16.00;99.90
13049;DHT22;6591;51.446;5.404;2022-10-15T02:52:49;15.10;99.90
13049;DHT22;6591;51.446;5.404;2022-10-15T02:55:16;17.10;99.90
13049;DHT22;6591;51.446;5.404;2022-10-15T02:57:44;17.30;99.90
13049;DHT22;6591;51.446;5.404;2022-10-15T03:00:11;15.80;99.90
13049;DHT22;6591;51.446;5.404;2022-10-15T03:02:39;15.20;99.90
13049;DHT22;6591;51.446;5.404;2022-10-15T03:05:07;15.60;99.90
13049;DHT22;6591;51.446;5.404;2022-10-15T03:07:34;15.20;99.90
13049;DHT22;6591;51.446;5.404;2022-10-15T03:10:02;15.20;99.90
13049;DHT22;6591;51.446;5.404;2022-10-15T03:12:30;15.30;99.90
13049;DHT22;6591;51.446;5.404;2022-10-15T03:14:58;16.50;99.90
13049;DHT22;6591;51.446;5.404;2022-10-15T03:17:27;15.30;99.90
13049;DHT22;6591;51.446;5.404;2022-10-15T03:19:54;16.50;99.90
13049;DHT22;6591;51.446;5.404;2022-10-15T03:22:21;15.30;99.90
13049;DHT22;6591;51.446;5.404;2022-10-15T03:24:51;15.30;99.90
13049;DHT22;6591;51.446;5.404;2022-10-15T03:27:23;15.30;99.90
13049;DHT22;6591;51.446;5.404;2022-10-15T03:29:52;15.30;99.90
13049;DHT22;6591;51.446;5.404;2022-10-15T03:32:21;15.30;99.90
13049;DHT22;6591;51.446;5.404;2022-10-15T03:34:48;16.70;99.90
13049;DHT22;6591;51.446;5.404;2022-10-15T03:37:17;15.30;99.90
13049;DHT22;6591;51.446;5.404;2022-10-15T03:39:44;17.20;99.90
13049;DHT22;6591;51.446;5.404;2022-10-15T03:42:13;16.40;99.90
13049;DHT22;6591;51.446;5.404;2022-10-15T03:44:43;15.30;99.90
13049;DHT22;6591;51.446;5.404;2022-10-15T03:47:14;17.20;99.90
13049;DHT22;6591;51.446;5.404;2022-10-15T03:49:46;15.40;99.90
13049;DHT22;6591;51.446;5.404;2022-10-15T03:52:13;15.40;99.90
13049;DHT22;6591;51.446;5.404;2022-10-15T03:54:42;17.50;99.90
13049;DHT22;6591;51.446;5.404;2022-10-15T03:57:11;15.40;99.90
13049;DHT22;6591;51.446;5.404;2022-10-15T03:59:47;15.40;99.90
13049;DHT22;6591;51.446;5.404;2022-10-15T04:02:15;15.60;99.90
13049;DHT22;6591;51.446;5.404;2022-10-15T04:04:42;14.50;99.90
13049;DHT22;6591;51.446;5.404;2022-10-15T04:07:10;16.00;99.90
13049;DHT22;6591;51.446;5.404;2022-10-15T04:09:37;15.40;99.90
13049;DHT22;6591;51.446;5.404;2022-10-15T04:12:24;17.10;99.90
13049;DHT22;6591;51.446;5.404;2022-10-15T04:14:51;15.70;99.90
13049;DHT22;6591;51.446;5.404;2022-10-15T04:17:18;16.80;99.90
13049;DHT22;6591;51.446;5.404;2022-10-15T04:19:45;15.50;99.90
13049;DHT22;6591;51.446;5.404;2022-10-15T04:22:13;15.50;99.90
13049;DHT22;6591;51.446;5.404;2022-10-15T04:24:46;15.50;99.90
13049;DHT22;6591;51.446;5.404;2022-10-15T04:27:23;15.50;99.90
13049;DHT22;6591;51.446;5.404;2022-10-15T04:29:50;15.60;99.90
13049;DHT22;6591;51.446;5.404;2022-10-15T04:32:18;15.60;99.90
13049;DHT22;6591;51.446;5.404;2022-10-15T04:34:46;15.80;99.90
13049;DHT22;6591;51.446;5.404;2022-10-15T04:37:15;15.70;99.90
13049;DHT22;6591;51.446;5.404;2022-10-15T04:39:42;17.30;99.90
13049;DHT22;6591;51.446;5.404;2022-10-15T04:42:11;15.70;99.90
13049;DHT22;6591;51.446;5.404;2022-10-15T04:44:39;15.70;99.90
13049;DHT22;6591;51.446;5.404;2022-10-15T04:47:06;15.70;99.90
13049;DHT22;6591;51.446;5.404;2022-10-15T04:49:39;15.70;99.90
13049;DHT22;6591;51.446;5.404;2022-10-15T04:52:22;15.80;99.90
13049;DHT22;6591;51.446;5.404;2022-10-15T04:54:55;15.80;99.90
13049;DHT22;6591;51.446;5.404;2022-10-15T04:57:23;15.80;99.90
13049;DHT22;6591;51.446;5.404;2022-10-15T04:59:52;15.80;99.90
13049;DHT22;6591;51.446;5.404;2022-10-15T05:02:23;15.80;99.90
13049;DHT22;6591;51.446;5.404;2022-10-15T05:04:56;15.80;99.90
13049;DHT22;6591;51.446;5.404;2022-10-15T05:07:23;16.10;99.90
13049;DHT22;6591;51.446;5.404;2022-10-15T05:09:52;15.90;99.90
13049;DHT22;6591;51.446;5.404;2022-10-15T05:12:19;17.40;99.90
13049;DHT22;6591;51.446;5.404;2022-10-15T05:14:47;15.90;99.90
13049;DHT22;6591;51.446;5.404;2022-10-15T05:17:20;17.90;99.90
13049;DHT22;6591;51.446;5.404;2022-10-15T05:19:48;15.90;99.90
13049;DHT22;6591;51.446;5.404;2022-10-15T05:22:20;16.00;99.90
13049;DHT22;6591;51.446;5.404;2022-10-15T05:24:52;16.00;99.90
13049;DHT22;6591;51.446;5.404;2022-10-15T05:27:34;17.10;99.90
13049;DHT22;6591;51.446;5.404;2022-10-15T05:30:03;18.20;99.90
13049;DHT22;6591;51.446;5.404;2022-10-15T05:32:36;16.00;99.90
13049;DHT22;6591;51.446;5.404;2022-10-15T05:35:03;16.00;99.90
13049;DHT22;6591;51.446;5.404;2022-10-15T05:37:52;15.90;99.90
13049;DHT22;6591;51.446;5.404;2022-10-15T05:40:19;15.90;99.90
13049;DHT22;6591;51.446;5.404;2022-10-15T05:43:03;15.90;99.90
13049;DHT22;6591;51.446;5.404;2022-10-15T05:45:30;16.80;99.90
13049;DHT22;6591;51.446;5.404;2022-10-15T05:48:02;15.80;99.90
13049;DHT22;6591;51.446;5.404;2022-10-15T05:50:30;15.70;99.90
13049;DHT22;6591;51.446;5.404;2022-10-15T05:52:59;15.70;99.90
13049;DHT22;6591;51.446;5.404;2022-10-15T05:55:38;15.60;99.90
13049;DHT22;6591;51.446;5.404;2022-10-15T05:58:05;15.60;99.90
13049;DHT22;6591;51.446;5.404;2022-10-15T06:00:33;15.50;99.90
13049;DHT22;6591;51.446;5.404;2022-10-15T06:03:00;17.30;99.90
13049;DHT22;6591;51.446;5.404;2022-10-15T06:05:27;15.30;99.90
13049;DHT22;6591;51.446;5.404;2022-10-15T06:07:56;15.20;99.90
13049;DHT22;6591;51.446;5.404;2022-10-15T06:10:26;15.20;99.90
13049;DHT22;6591;51.446;5.404;2022-10-15T06:12:54;15.10;99.90
13049;DHT22;6591;51.446;5.404;2022-10-15T06:15:21;17.10;99.90
13049;DHT22;6591;51.446;5.404;2022-10-15T06:17:53;15.00;99.90
13049;DHT22;6591;51.446;5.404;2022-10-15T06:20:20;14.90;99.90
13049;DHT22;6591;51.446;5.404;2022-10-15T06:22:47;15.90;99.90
13049;DHT22;6591;51.446;5.404;2022-10-15T06:25:14;15.00;99.90
13049;DHT22;6591;51.446;5.404;2022-10-15T06:27:41;15.00;99.90
13049;DHT22;6591;51.446;5.404;2022-10-15T06:30:08;15.10;99.90
13049;DHT22;6591;51.446;5.404;2022-10-15T06:32:35;15.10;99.90
13049;DHT22;6591;51.446;5.404;2022-10-15T06:35:05;17.10;99.90
13049;DHT22;6591;51.446;5.404;2022-10-15T06:37:33;15.20;99.90
13049;DHT22;6591;51.446;5.404;2022-10-15T06:40:00;17.20;99.90
13049;DHT22;6591;51.446;5.404;2022-10-15T06:42:27;15.20;99.90
13049;DHT22;6591;51.446;5.404;2022-10-15T06:44:54;15.30;99.90
13049;DHT22;6591;51.446;5.404;2022-10-15T06:47:21;15.40;99.90
13049;DHT22;6591;51.446;5.404;2022-10-15T06:49:48;15.40;99.90
13049;DHT22;6591;51.446;5.404;2022-10-15T06:52:15;15.40;99.90
13049;DHT22;6591;51.446;5.404;2022-10-15T06:54:42;17.10;99.90
13049;DHT22;6591;51.446;5.404;2022-10-15T06:57:09;15.50;99.90
13049;DHT22;6591;51.446;5.404;2022-10-15T06:59:36;15.50;99.90
13049;DHT22;6591;51.446;5.404;2022-10-15T07:02:10;17.70;99.90
13049;DHT22;6591;51.446;5.404;2022-10-15T07:04:39;15.50;99.90
13049;DHT22;6591;51.446;5.404;2022-10-15T07:07:06;15.50;99.90
13049;DHT22;6591;51.446;5.404;2022-10-15T07:09:33;15.60;99.90
13049;DHT22;6591;51.446;5.404;2022-10-15T07:12:01;15.60;99.90
13049;DHT22;6591;51.446;5.404;2022-10-15T07:14:30;15.60;99.90
13049;DHT22;6591;51.446;5.404;2022-10-15T07:16:58;18.00;99.90
13049;DHT22;6591;51.446;5.404;2022-10-15T07:19:25;15.60;99.90
13049;DHT22;6591;51.446;5.404;2022-10-15T07:21:53;15.10;99.90
13049;DHT22;6591;51.446;5.404;2022-10-15T07:24:20;15.70;99.90
13049;DHT22;6591;51.446;5.404;2022-10-15T07:26:47;15.70;99.90
13049;DHT22;6591;51.446;5.404;2022-10-15T07:29:14;17.80;99.90
13049;DHT22;6591;51.446;5.404;2022-10-15T07:31:44;15.80;99.90
13049;DHT22;6591;51.446;5.404;2022-10-15T07:34:15;15.90;99.90
13049;DHT22;6591;51.446;5.404;2022-10-15T07:36:42;16.00;99.90
13049;DHT22;6591;51.446;5.404;2022-10-15T07:39:09;16.10;99.90
13049;DHT22;6591;51.446;5.404;2022-10-15T07:41:36;16.20;99.90
13049;DHT22;6591;51.446;5.404;2022-10-15T07:44:04;17.00;99.90
13049;DHT22;6591;51.446;5.404;2022-10-15T07:46:31;16.40;99.90
13049;DHT22;6591;51.446;5.404;2022-10-15T07:48:59;18.50;99.90
13049;DHT22;6591;51.446;5.404;2022-10-15T07:51:25;18.50;99.90
13049;DHT22;6591;51.446;5.404;2022-10-15T07:53:52;18.80;99.90
13049;DHT22;6591;51.446;5.404;2022-10-15T07:56:19;16.70;99.90
13049;DHT22;6591;51.446;5.404;2022-10-15T07:58:46;16.90;99.90
13049;DHT22;6591;51.446;5.404;2022-10-15T08:01:20;16.90;99.90
13049;DHT22;6591;51.446;5.404;2022-10-15T08:03:47;17.90;99.90
13049;DHT22;6591;51.446;5.404;2022-10-15T08:06:15;17.60;99.90
13049;DHT22;6591;51.446;5.404;2022-10-15T08:08:42;18.60;99.90
13049;DHT22;6591;51.446;5.404;2022-10-15T08:11:14;18.20;99.90
13049;DHT22;6591;51.446;5.404;2022-10-15T08:13:43;17.40;99.90
13049;DHT22;6591;51.446;5.404;2022-10-15T08:16:14;17.40;99.90
13049;DHT22;6591;51.446;5.404;2022-10-15T08:18:43;17.50;99.90
13049;DHT22;6591;51.446;5.404;2022-10-15T08:21:10;19.00;99.90
13049;DHT22;6591;51.446;5.404;2022-10-15T08:23:38;17.70;99.90
13049;DHT22;6591;51.446;5.404;2022-10-15T08:26:05;17.80;99.90
13049;DHT22;6591;51.446;5.404;2022-10-15T08:28:34;17.80;99.90
13049;DHT22;6591;51.446;5.404;2022-10-15T08:31:02;18.00;99.90
13049;DHT22;6591;51.446;5.404;2022-10-15T08:33:33;18.00;99.90
13049;DHT22;6591;51.446;5.404;2022-10-15T08:36:01;19.30;99.90
13049;DHT22;6591;51.446;5.404;2022-10-15T08:38:30;18.80;99.90
13049;DHT22;6591;51.446;5.404;2022-10-15T08:41:00;18.30;99.90
13049;DHT22;6591;51.446;5.404;2022-10-15T08:43:35;18.40;99.90
13049;DHT22;6591;51.446;5.404;2022-10-15T08:46:20;18.40;99.90
13049;DHT22;6591;51.446;5.404;2022-10-15T08:48:55;18.50;99.90
13049;DHT22;6591;51.446;5.404;2022-10-15T08:51:36;20.20;99.90
13049;DHT22;6591;51.446;5.404;2022-10-15T08:54:13;19.30;99.90
13049;DHT22;6591;51.446;5.404;2022-10-15T08:56:46;18.60;99.90
13049;DHT22;6591;51.446;5.404;2022-10-15T09:02:38;18.70;99.90
13049;DHT22;6591;51.446;5.404;2022-10-15T09:05:49;18.80;99.90
13049;DHT22;6591;51.446;5.404;2022-10-15T09:14:37;19.10;99.90
13049;DHT22;6591;51.446;5.404;2022-10-15T09:17:21;19.20;99.90
13049;DHT22;6591;51.446;5.404;2022-10-15T09:19:57;19.20;99.90
13049;DHT22;6591;51.446;5.404;2022-10-15T09:22:27;19.40;99.90
13049;DHT22;6591;51.446;5.404;2022-10-15T09:24:56;19.30;99.90
13049;DHT22;6591;51.446;5.404;2022-10-15T09:27:34;19.40;99.90
13049;DHT22;6591;51.446;5.404;2022-10-15T09:35:55;19.30;99.90
13049;DHT22;6591;51.446;5.404;2022-10-15T09:39:02;19.20;99.90
13049;DHT22;6591;51.446;5.404;2022-10-15T09:41:57;19.10;99.90
13049;DHT22;6591;51.446;5.404;2022-10-15T09:44:44;19.20;99.90
13049;DHT22;6591;51.446;5.404;2022-10-15T09:47:23;19.20;99.90
13049;DHT22;6591;51.446;5.404;2022-10-15T09:49:59;19.10;99.90
13049;DHT22;6591;51.446;5.404;2022-10-15T09:55:48;19.00;99.90
13049;DHT22;6591;51.446;5.404;2022-10-15T09:58:36;19.00;99.90
13049;DHT22;6591;51.446;5.404;2022-10-15T10:01:17;20.00;99.90
13049;DHT22;6591;51.446;5.404;2022-10-15T10:03:54;19.30;99.90
13049;DHT22;6591;51.446;5.404;2022-10-15T10:06:53;19.10;99.90
13049;DHT22;6591;51.446;5.404;2022-10-15T10:09:30;21.20;99.90
13049;DHT22;6591;51.446;5.404;2022-10-15T10:12:04;19.30;99.90
13049;DHT22;6591;51.446;5.404;2022-10-15T10:14:39;19.30;99.90
13049;DHT22;6591;51.446;5.404;2022-10-15T10:17:19;19.30;99.90
13049;DHT22;6591;51.446;5.404;2022-10-15T10:20:29;20.00;99.90
13049;DHT22;6591;51.446;5.404;2022-10-15T10:23:01;20.60;99.90
13049;DHT22;6591;51.446;5.404;2022-10-15T10:25:47;20.70;99.90
13049;DHT22;6591;51.446;5.404;2022-10-15T10:28:27;19.50;99.90
13049;DHT22;6591;51.446;5.404;2022-10-15T10:31:01;19.60;99.90
13049;DHT22;6591;51.446;5.404;2022-10-15T10:34:03;19.60;99.90
13049;DHT22;6591;51.446;5.404;2022-10-15T10:36:33;18.10;99.90
13049;DHT22;6591;51.446;5.404;2022-10-15T10:41:55;19.70;99.90
13049;DHT22;6591;51.446;5.404;2022-10-15T10:44:28;19.80;99.90
13049;DHT22;6591;51.446;5.404;2022-10-15T10:47:15;19.90;99.90
13049;DHT22;6591;51.446;5.404;2022-10-15T10:49:48;19.90;99.90
13049;DHT22;6591;51.446;5.404;2022-10-15T10:52:31;20.00;99.90
13049;DHT22;6591;51.446;5.404;2022-10-15T10:55:22;20.00;99.90
13049;DHT22;6591;51.446;5.404;2022-10-15T10:57:58;20.10;99.90
13049;DHT22;6591;51.446;5.404;2022-10-15T11:00:44;20.50;99.90
13049;DHT22;6591;51.446;5.404;2022-10-15T11:09:30;20.40;99.90
13049;DHT22;6591;51.446;5.404;2022-10-15T11:21:28;20.80;99.90
13049;DHT22;6591;51.446;5.404;2022-10-15T11:24:38;20.80;99.90
13049;DHT22;6591;51.446;5.404;2022-10-15T11:27:37;20.80;99.90
13049;DHT22;6591;51.446;5.404;2022-10-15T11:39:49;20.90;99.90
13049;DHT22;6591;51.446;5.404;2022-10-15T11:54:11;20.70;99.90
13049;DHT22;6591;51.446;5.404;2022-10-15T11:56:44;20.70;99.90
13049;DHT22;6591;51.446;5.404;2022-10-15T12:02:38;20.70;99.90
13049;DHT22;6591;51.446;5.404;2022-10-15T12:05:23;20.60;99.90
13049;DHT22;6591;51.446;5.404;2022-10-15T12:07:59;20.90;99.90
13049;DHT22;6591;51.446;5.404;2022-10-15T12:13:27;20.70;99.90
13049;DHT22;6591;51.446;5.404;2022-10-15T12:16:40;19.90;99.90
13049;DHT22;6591;51.446;5.404;2022-10-15T12:19:28;20.80;99.90
13049;DHT22;6591;51.446;5.404;2022-10-15T12:22:06;20.90;99.90
13049;DHT22;6591;51.446;5.404;2022-10-15T12:24:49;22.20;99.90
13049;DHT22;6591;51.446;5.404;2022-10-15T12:32:45;21.20;99.90
13049;DHT22;6591;51.446;5.404;2022-10-15T12:37:42;21.50;99.90
13049;DHT22;6591;51.446;5.404;2022-10-15T12:42:53;21.80;99.90
13049;DHT22;6591;51.446;5.404;2022-10-15T12:45:38;22.80;99.90
13049;DHT22;6591;51.446;5.404;2022-10-15T12:50:34;22.20;99.90
13049;DHT22;6591;51.446;5.404;2022-10-15T12:58:45;22.50;99.90
13049;DHT22;6591;51.446;5.404;2022-10-15T13:04:00;23.90;99.90
13049;DHT22;6591;51.446;5.404;2022-10-15T13:06:33;22.40;99.90
13049;DHT22;6591;51.446;5.404;2022-10-15T13:11:49;22.50;99.90
13049;DHT22;6591;51.446;5.404;2022-10-15T13:14:37;22.50;99.90
13049;DHT22;6591;51.446;5.404;2022-10-15T13:17:20;22.60;99.90
13049;DHT22;6591;51.446;5.404;2022-10-15T13:19:59;22.80;99.90
13049;DHT22;6591;51.446;5.404;2022-10-15T13:22:35;22.80;99.90
13049;DHT22;6591;51.446;5.404;2022-10-15T13:25:03;22.80;99.90
13049;DHT22;6591;51.446;5.404;2022-10-15T13:27:31;22.80;99.90
13049;DHT22;6591;51.446;5.404;2022-10-15T13:30:02;22.90;99.90
13049;DHT22;6591;51.446;5.404;2022-10-15T13:32:53;22.80;99.90
13049;DHT22;6591;51.446;5.404;2022-10-15T13:35:24;22.90;99.90
13049;DHT22;6591;51.446;5.404;2022-10-15T13:38:02;22.90;99.90
13049;DHT22;6591;51.446;5.404;2022-10-15T13:40:30;24.10;99.90
13049;DHT22;6591;51.446;5.404;2022-10-15T13:43:04;22.90;99.90
13049;DHT22;6591;51.446;5.404;2022-10-15T13:46:10;22.90;99.90
13049;DHT22;6591;51.446;5.404;2022-10-15T13:48:41;22.90;99.90
13049;DHT22;6591;51.446;5.404;2022-10-15T13:51:09;22.80;99.90
13049;DHT22;6591;51.446;5.404;2022-10-15T13:53:40;22.80;99.90
13049;DHT22;6591;51.446;5.404;2022-10-15T13:59:19;22.60;99.90
13049;DHT22;6591;51.446;5.404;2022-10-15T14:01:52;22.50;99.90
13049;DHT22;6591;51.446;5.404;2022-10-15T14:04:28;22.30;99.90
13049;DHT22;6591;51.446;5.404;2022-10-15T14:07:03;22.10;99.90
13049;DHT22;6591;51.446;5.404;2022-10-15T14:09:48;22.00;99.90
13049;DHT22;6591;51.446;5.404;2022-10-15T14:12:16;21.80;99.90
13049;DHT22;6591;51.446;5.404;2022-10-15T14:14:45;22.30;99.90
13049;DHT22;6591;51.446;5.404;2022-10-15T14:19:55;21.50;99.90
13049;DHT22;6591;51.446;5.404;2022-10-15T14:22:48;21.40;99.90
13049;DHT22;6591;51.446;5.404;2022-10-15T14:25:21;20.90;99.90
13049;DHT22;6591;51.446;5.404;2022-10-15T14:27:53;21.20;99.90
13049;DHT22;6591;51.446;5.404;2022-10-15T14:30:30;22.10;99.90
13049;DHT22;6591;51.446;5.404;2022-10-15T14:32:59;22.60;99.90
13049;DHT22;6591;51.446;5.404;2022-10-15T14:35:32;21.10;99.90
13049;DHT22;6591;51.446;5.404;2022-10-15T14:40:36;21.20;99.90
13049;DHT22;6591;51.446;5.404;2022-10-15T14:43:16;21.20;99.90
13049;DHT22;6591;51.446;5.404;2022-10-15T14:48:21;21.20;99.90
13049;DHT22;6591;51.446;5.404;2022-10-15T14:50:50;21.20;99.90
13049;DHT22;6591;51.446;5.404;2022-10-15T14:53:26;21.30;99.90
13049;DHT22;6591;51.446;5.404;2022-10-15T14:56:00;21.20;99.90
13049;DHT22;6591;51.446;5.404;2022-10-15T14:58:46;21.20;99.80
13049;DHT22;6591;51.446;5.404;2022-10-15T15:01:19;21.10;99.80
13049;DHT22;6591;51.446;5.404;2022-10-15T15:03:51;21.00;99.90
13049;DHT22;6591;51.446;5.404;2022-10-15T15:06:20;20.90;99.40
13049;DHT22;6591;51.446;5.404;2022-10-15T15:08:47;20.80;99.90
13049;DHT22;6591;51.446;5.404;2022-10-15T15:11:18;20.90;99.90
13049;DHT22;6591;51.446;5.404;2022-10-15T15:13:51;20.70;99.90
13049;DHT22;6591;51.446;5.404;2022-10-15T15:16:19;20.70;99.90
13049;DHT22;6591;51.446;5.404;2022-10-15T15:18:46;20.70;99.90
13049;DHT22;6591;51.446;5.404;2022-10-15T15:21:19;20.70;99.90
13049;DHT22;6591;51.446;5.404;2022-10-15T15:23:49;21.20;99.90
13049;DHT22;6591;51.446;5.404;2022-10-15T15:26:17;20.70;99.90
13049;DHT22;6591;51.446;5.404;2022-10-15T15:28:44;20.80;99.90
13049;DHT22;6591;51.446;5.404;2022-10-15T15:31:16;20.80;99.90
13049;DHT22;6591;51.446;5.404;2022-10-15T15:33:44;20.80;99.90
13049;DHT22;6591;51.446;5.404;2022-10-15T15:36:12;20.80;99.90
13049;DHT22;6591;51.446;5.404;2022-10-15T15:38:48;20.90;99.90
13049;DHT22;6591;51.446;5.404;2022-10-15T15:41:21;20.90;99.90
13049;DHT22;6591;51.446;5.404;2022-10-15T15:43:49;20.90;99.90
13049;DHT22;6591;51.446;5.404;2022-10-15T15:46:17;20.80;99.90
13049;DHT22;6591;51.446;5.404;2022-10-15T15:48:44;20.80;99.90
13049;DHT22;6591;51.446;5.404;2022-10-15T15:51:21;20.70;99.90
13049;DHT22;6591;51.446;5.404;2022-10-15T15:53:51;20.70;99.90
13049;DHT22;6591;51.446;5.404;2022-10-15T15:56:18;20.60;99.90
13049;DHT22;6591;51.446;5.404;2022-10-15T15:58:45;20.50;99.90
13049;DHT22;6591;51.446;5.404;2022-10-15T16:01:12;20.50;99.90
13049;DHT22;6591;51.446;5.404;2022-10-15T16:03:39;20.40;99.90
13049;DHT22;6591;51.446;5.404;2022-10-15T16:06:07;20.30;99.90
13049;DHT22;6591;51.446;5.404;2022-10-15T16:08:34;20.20;99.90
13049;DHT22;6591;51.446;5.404;2022-10-15T16:11:04;20.10;99.90
13049;DHT22;6591;51.446;5.404;2022-10-15T16:13:32;19.90;99.90
13049;DHT22;6591;51.446;5.404;2022-10-15T16:15:59;19.90;99.90
13049;DHT22;6591;51.446;5.404;2022-10-15T16:18:26;19.80;99.90
13049;DHT22;6591;51.446;5.404;2022-10-15T16:20:54;19.90;99.90
13049;DHT22;6591;51.446;5.404;2022-10-15T16:23:21;19.40;99.90
13049;DHT22;6591;51.446;5.404;2022-10-15T16:25:48;19.30;99.90
13049;DHT22;6591;51.446;5.404;2022-10-15T16:28:15;20.70;99.90
13049;DHT22;6591;51.446;5.404;2022-10-15T16:30:42;19.00;99.90
13049;DHT22;6591;51.446;5.404;2022-10-15T16:33:08;18.90;99.90
13049;DHT22;6591;51.446;5.404;2022-10-15T16:35:35;18.70;99.90
13049;DHT22;6591;51.446;5.404;2022-10-15T16:38:02;19.20;99.90
13049;DHT22;6591;51.446;5.404;2022-10-15T16:40:30;18.50;99.90
13049;DHT22;6591;51.446;5.404;2022-10-15T16:43:00;18.30;99.90
13049;DHT22;6591;51.446;5.404;2022-10-15T16:45:27;18.20;99.90
13049;DHT22;6591;51.446;5.404;2022-10-15T16:47:55;19.40;99.90
13049;DHT22;6591;51.446;5.404;2022-10-15T16:50:22;18.10;99.90
13049;DHT22;6591;51.446;5.404;2022-10-15T16:52:49;17.70;99.90
13049;DHT22;6591;51.446;5.404;2022-10-15T16:55:19;18.50;99.90
13049;DHT22;6591;51.446;5.404;2022-10-15T16:57:46;18.20;99.90
13049;DHT22;6591;51.446;5.404;2022-10-15T17:00:13;17.30;99.90
13049;DHT22;6591;51.446;5.404;2022-10-15T17:02:40;17.10;99.90
13049;DHT22;6591;51.446;5.404;2022-10-15T17:05:07;17.00;99.90
13049;DHT22;6591;51.446;5.404;2022-10-15T17:07:34;16.90;99.90
13049;DHT22;6591;51.446;5.404;2022-10-15T17:10:01;16.80;99.90
13049;DHT22;6591;51.446;5.404;2022-10-15T17:12:32;16.70;99.90
13049;DHT22;6591;51.446;5.404;2022-10-15T17:14:59;17.30;99.90
13049;DHT22;6591;51.446;5.404;2022-10-15T17:17:25;17.90;99.90
13049;DHT22;6591;51.446;5.404;2022-10-15T17:19:52;16.40;99.90
13049;DHT22;6591;51.446;5.404;2022-10-15T17:22:19;16.40;99.90
13049;DHT22;6591;51.446;5.404;2022-10-15T17:24:48;16.30;99.90
13049;DHT22;6591;51.446;5.404;2022-10-15T17:27:15;16.30;99.90
13049;DHT22;6591;51.446;5.404;2022-10-15T17:29:41;16.20;99.90
13049;DHT22;6591;51.446;5.404;2022-10-15T17:32:09;16.20;99.90
13049;DHT22;6591;51.446;5.404;2022-10-15T17:34:35;16.20;99.90
13049;DHT22;6591;51.446;5.404;2022-10-15T17:37:02;16.10;99.90
13049;DHT22;6591;51.446;5.404;2022-10-15T17:39:31;16.40;99.90
13049;DHT22;6591;51.446;5.404;2022-10-15T17:41:59;16.20;99.90
13049;DHT22;6591;51.446;5.404;2022-10-15T17:44:26;16.00;99.90
13049;DHT22;6591;51.446;5.404;2022-10-15T17:46:53;16.60;99.90
13049;DHT22;6591;51.446;5.404;2022-10-15T17:49:26;16.00;99.90
13049;DHT22;6591;51.446;5.404;2022-10-15T17:51:53;15.90;99.90
13049;DHT22;6591;51.446;5.404;2022-10-15T17:54:20;15.90;99.90
13049;DHT22;6591;51.446;5.404;2022-10-15T17:56:48;15.90;99.90
13049;DHT22;6591;51.446;5.404;2022-10-15T17:59:15;15.90;99.90
13049;DHT22;6591;51.446;5.404;2022-10-15T18:01:42;15.80;99.90
13049;DHT22;6591;51.446;5.404;2022-10-15T18:04:28;15.80;99.90
13049;DHT22;6591;51.446;5.404;2022-10-15T18:06:56;15.80;99.90
13049;DHT22;6591;51.446;5.404;2022-10-15T18:09:25;15.70;99.90
13049;DHT22;6591;51.446;5.404;2022-10-15T18:11:54;17.00;99.90
13049;DHT22;6591;51.446;5.404;2022-10-15T18:14:27;15.60;99.90
13049;DHT22;6591;51.446;5.404;2022-10-15T18:16:55;15.70;99.90